MV Sukran S — TCKB — position and weather

sailwx.info

Track history (hours):
 
Tides and Currents Weather Stations Pressure Air Temp Water Temp Dewpoint Dewpoint Depression Visibility Wind Speed Wind Dir Waves Ship Positions

MV Sukran S

Last reported at 2014-Aug-28 09:21 UTC. Time now 2014-Aug-29 01:32 UTC.
Position N 44°08' E 036°50'.

Length 108 m; draft 7.2 m.

Type: Cargo ship. MMSI: 271000056.

Date/timePositionNaut miles runAvg speedWind from/ knotsBaromVisibWave heightAir tempDewpointWater temp
2014-Aug-28 09:21N 44°08' E 036°50'26 9.2
2014-Aug-28 06:31N 44°23' E 037°19'9 9.6
2014-Aug-28 05:33N 44°28' E 037°30'10 9.6
2014-Aug-28 04:33N 44°33' E 037°41'9 9.2
2014-Aug-28 03:33N 44°40' E 037°50'5 4.7
2014-Aug-28 02:33N 44°44' E 037°47'0 0.0
2014-Aug-28 01:33N 44°44' E 037°47'0 0.0
2014-Aug-28 00:32N 44°44' E 037°47'0 0.0
2014-Aug-27 23:32N 44°44' E 037°47'0 0.0
2014-Aug-27 22:31N 44°44' E 037°47'0 0.0
2014-Aug-27 21:31N 44°44' E 037°47'0 0.0
2014-Aug-27 20:31N 44°44' E 037°47'0 0.0
2014-Aug-27 19:33N 44°44' E 037°47'0 0.0
2014-Aug-27 18:33N 44°44' E 037°47'0 0.0
2014-Aug-27 17:32N 44°44' E 037°47'0 0.0
2014-Aug-27 16:29N 44°44' E 037°47'0 0.0
2014-Aug-27 15:31N 44°44' E 037°47'0 0.0
2014-Aug-27 14:31N 44°44' E 037°47'0 0.0
2014-Aug-27 13:27N 44°44' E 037°47'0 0.0
2014-Aug-27 12:33N 44°44' E 037°47'0 0.0
2014-Aug-27 11:34N 44°44' E 037°47'0 0.0
2014-Aug-27 10:32N 44°44' E 037°47'0 0.0
2014-Aug-27 09:31N 44°44' E 037°47'0 0.0
2014-Aug-27 08:33N 44°44' E 037°47'0 0.0
2014-Aug-27 07:33N 44°44' E 037°47'0 0.0
2014-Aug-27 06:33N 44°44' E 037°47'0 0.0
2014-Aug-27 05:31N 44°44' E 037°47'0 0.0
2014-Aug-27 04:33N 44°44' E 037°47'0 0.0
2014-Aug-27 03:33N 44°44' E 037°47'0 0.0
2014-Aug-27 02:33N 44°44' E 037°47'0 0.0
2014-Aug-27 01:32N 44°44' E 037°47'0 0.0
2014-Aug-27 00:32N 44°44' E 037°47'0 0.0
2014-Aug-26 23:28N 44°44' E 037°47'0 0.0
2014-Aug-26 22:31N 44°44' E 037°47'0 0.0
2014-Aug-26 21:31N 44°44' E 037°47'0 0.0
2014-Aug-26 20:33N 44°44' E 037°47'0 0.0
2014-Aug-26 19:33N 44°44' E 037°47'0 0.0
2014-Aug-26 18:32N 44°44' E 037°47'0 0.0
2014-Aug-26 17:32N 44°44' E 037°47'0 0.0
2014-Aug-26 16:31N 44°44' E 037°47'0 0.0
2014-Aug-26 15:33N 44°44' E 037°47'0 0.0
2014-Aug-26 14:31N 44°44' E 037°47'0 0.0
2014-Aug-26 13:33N 44°44' E 037°47'0 0.0
2014-Aug-26 12:33N 44°44' E 037°47'0 0.0
2014-Aug-26 11:33N 44°44' E 037°47'0 0.0
2014-Aug-26 10:31N 44°44' E 037°47'0 0.0
2014-Aug-26 09:33N 44°44' E 037°47'0 0.0
2014-Aug-26 08:33N 44°44' E 037°47'0 0.0
2014-Aug-26 07:32N 44°44' E 037°47'0 0.0
2014-Aug-26 06:31N 44°44' E 037°47'0 0.0
2014-Aug-26 05:30N 44°44' E 037°47'0 0.0
2014-Aug-26 04:32N 44°44' E 037°47'0 0.0
2014-Aug-26 03:32N 44°44' E 037°47'0 0.0
2014-Aug-26 02:31N 44°44' E 037°47'0 0.0
2014-Aug-26 01:31N 44°44' E 037°47'0 0.0
2014-Aug-26 00:33N 44°44' E 037°47'0 0.0
2014-Aug-25 23:33N 44°44' E 037°47'0 0.0
2014-Aug-25 22:32N 44°44' E 037°47'0 0.0
2014-Aug-25 21:32N 44°44' E 037°47'0 0.0
2014-Aug-25 20:32N 44°44' E 037°47'0 0.0
2014-Aug-25 19:31N 44°44' E 037°47'5 4.8
2014-Aug-25 18:33N 44°40' E 037°50'2 2.0
2014-Aug-25 17:24N 44°39' E 037°54'0 0.0
2014-Aug-25 16:32N 44°39' E 037°54'0 0.1
2014-Aug-25 15:32N 44°40' E 037°54'0 0.0
2014-Aug-25 14:31N 44°40' E 037°54'0 0.0
2014-Aug-25 13:31N 44°40' E 037°54'0 0.0
2014-Aug-25 12:34N 44°40' E 037°54'0 0.0
2014-Aug-25 11:33N 44°40' E 037°54'0 0.0
2014-Aug-25 10:33N 44°40' E 037°54'0 0.0
2014-Aug-25 09:32N 44°40' E 037°54'0 0.0
2014-Aug-25 08:32N 44°40' E 037°54'0 0.0
2014-Aug-25 07:31N 44°40' E 037°54'0 0.0
2014-Aug-25 06:31N 44°39' E 037°54'0 0.0
2014-Aug-25 05:33N 44°39' E 037°54'0 0.1
2014-Aug-25 04:33N 44°39' E 037°54'0 0.1
2014-Aug-25 03:33N 44°39' E 037°54'0 0.0
2014-Aug-25 02:32N 44°39' E 037°54'0 0.1
2014-Aug-25 01:32N 44°39' E 037°54'0 0.1
2014-Aug-25 00:31N 44°39' E 037°54'0 0.0
2014-Aug-24 23:31N 44°40' E 037°54'0 0.0
2014-Aug-24 22:33N 44°39' E 037°54'0 0.0
2014-Aug-24 21:33N 44°39' E 037°54'0 0.1
2014-Aug-24 20:33N 44°39' E 037°54'0 0.0
2014-Aug-24 19:32N 44°39' E 037°54'0 0.1
2014-Aug-24 18:32N 44°39' E 037°54'0 0.1
2014-Aug-24 17:31N 44°39' E 037°54'0 0.0
2014-Aug-24 16:28N 44°39' E 037°54'0 0.0
2014-Aug-24 11:26N 44°40' E 037°54'0 0.0
2014-Aug-24 10:31N 44°40' E 037°54'0 0.0
2014-Aug-24 09:31N 44°40' E 037°54'0 0.0
2014-Aug-24 08:33N 44°40' E 037°54'0 0.0
2014-Aug-24 07:33N 44°39' E 037°54'0 0.0
2014-Aug-24 06:33N 44°39' E 037°54'0 0.1
2014-Aug-24 05:32N 44°39' E 037°54'0 0.0
2014-Aug-24 04:32N 44°39' E 037°54'0 0.0
2014-Aug-24 03:31N 44°39' E 037°54'0 0.0
2014-Aug-24 02:31N 44°39' E 037°54'0 0.0
2014-Aug-24 01:33N 44°39' E 037°54'0 0.1
2014-Aug-24 00:33N 44°39' E 037°54'0 0.0
2014-Aug-23 23:33N 44°39' E 037°54'0 0.0
2014-Aug-23 22:32N 44°39' E 037°54'0 0.0
2014-Aug-23 21:29N 44°39' E 037°54'0 0.0
2014-Aug-23 20:31N 44°39' E 037°54'0 0.0
2014-Aug-23 19:31N 44°39' E 037°54'  
Track history (hours):
 
Tides and Currents Weather Stations Pressure Air Temp Water Temp Dewpoint Dewpoint Depression Visibility Wind Speed Wind Dir Waves Ship Positions

MV Sukran S

Last reported at 2014-Aug-28 09:21 UTC. Time now 2014-Aug-29 01:32 UTC.
Position N 44°08' E 036°50'.

Length 108 m; draft 7.2 m.

Type: Cargo ship. MMSI: 271000056.

Date/timePositionNaut miles runAvg speedWind from/ knotsBaromVisibWave heightAir tempDewpointWater temp
2014-Aug-28 09:21N 44°08' E 036°50'26 9.2
2014-Aug-28 06:31N 44°23' E 037°19'9 9.6
2014-Aug-28 05:33N 44°28' E 037°30'10 9.6
2014-Aug-28 04:33N 44°33' E 037°41'9 9.2
2014-Aug-28 03:33N 44°40' E 037°50'5 4.7
2014-Aug-28 02:33N 44°44' E 037°47'0 0.0
2014-Aug-28 01:33N 44°44' E 037°47'0 0.0
2014-Aug-28 00:32N 44°44' E 037°47'0 0.0
2014-Aug-27 23:32N 44°44' E 037°47'0 0.0
2014-Aug-27 22:31N 44°44' E 037°47'0 0.0
2014-Aug-27 21:31N 44°44' E 037°47'0 0.0
2014-Aug-27 20:31N 44°44' E 037°47'0 0.0
2014-Aug-27 19:33N 44°44' E 037°47'0 0.0
2014-Aug-27 18:33N 44°44' E 037°47'0 0.0
2014-Aug-27 17:32N 44°44' E 037°47'0 0.0
2014-Aug-27 16:29N 44°44' E 037°47'0 0.0
2014-Aug-27 15:31N 44°44' E 037°47'0 0.0
2014-Aug-27 14:31N 44°44' E 037°47'0 0.0
2014-Aug-27 13:27N 44°44' E 037°47'0 0.0
2014-Aug-27 12:33N 44°44' E 037°47'0 0.0
2014-Aug-27 11:34N 44°44' E 037°47'0 0.0
2014-Aug-27 10:32N 44°44' E 037°47'0 0.0
2014-Aug-27 09:31N 44°44' E 037°47'0 0.0
2014-Aug-27 08:33N 44°44' E 037°47'0 0.0
2014-Aug-27 07:33N 44°44' E 037°47'0 0.0
2014-Aug-27 06:33N 44°44' E 037°47'0 0.0
2014-Aug-27 05:31N 44°44' E 037°47'0 0.0
2014-Aug-27 04:33N 44°44' E 037°47'0 0.0
2014-Aug-27 03:33N 44°44' E 037°47'0 0.0
2014-Aug-27 02:33N 44°44' E 037°47'0 0.0
2014-Aug-27 01:32N 44°44' E 037°47'0 0.0
2014-Aug-27 00:32N 44°44' E 037°47'0 0.0
2014-Aug-26 23:28N 44°44' E 037°47'0 0.0
2014-Aug-26 22:31N 44°44' E 037°47'0 0.0
2014-Aug-26 21:31N 44°44' E 037°47'0 0.0
2014-Aug-26 20:33N 44°44' E 037°47'0 0.0
2014-Aug-26 19:33N 44°44' E 037°47'0 0.0
2014-Aug-26 18:32N 44°44' E 037°47'0 0.0
2014-Aug-26 17:32N 44°44' E 037°47'0 0.0
2014-Aug-26 16:31N 44°44' E 037°47'0 0.0
2014-Aug-26 15:33N 44°44' E 037°47'0 0.0
2014-Aug-26 14:31N 44°44' E 037°47'0 0.0
2014-Aug-26 13:33N 44°44' E 037°47'0 0.0
2014-Aug-26 12:33N 44°44' E 037°47'0 0.0
2014-Aug-26 11:33N 44°44' E 037°47'0 0.0
2014-Aug-26 10:31N 44°44' E 037°47'0 0.0
2014-Aug-26 09:33N 44°44' E 037°47'0 0.0
2014-Aug-26 08:33N 44°44' E 037°47'0 0.0
2014-Aug-26 07:32N 44°44' E 037°47'0 0.0
2014-Aug-26 06:31N 44°44' E 037°47'0 0.0
2014-Aug-26 05:30N 44°44' E 037°47'0 0.0
2014-Aug-26 04:32N 44°44' E 037°47'0 0.0
2014-Aug-26 03:32N 44°44' E 037°47'0 0.0
2014-Aug-26 02:31N 44°44' E 037°47'0 0.0
2014-Aug-26 01:31N 44°44' E 037°47'0 0.0
2014-Aug-26 00:33N 44°44' E 037°47'0 0.0
2014-Aug-25 23:33N 44°44' E 037°47'0 0.0
2014-Aug-25 22:32N 44°44' E 037°47'0 0.0
2014-Aug-25 21:32N 44°44' E 037°47'0 0.0
2014-Aug-25 20:32N 44°44' E 037°47'0 0.0
2014-Aug-25 19:31N 44°44' E 037°47'5 4.8
2014-Aug-25 18:33N 44°40' E 037°50'2 2.0
2014-Aug-25 17:24N 44°39' E 037°54'0 0.0
2014-Aug-25 16:32N 44°39' E 037°54'0 0.1
2014-Aug-25 15:32N 44°40' E 037°54'0 0.0
2014-Aug-25 14:31N 44°40' E 037°54'0 0.0
2014-Aug-25 13:31N 44°40' E 037°54'0 0.0
2014-Aug-25 12:34N 44°40' E 037°54'0 0.0
2014-Aug-25 11:33N 44°40' E 037°54'0 0.0
2014-Aug-25 10:33N 44°40' E 037°54'0 0.0
2014-Aug-25 09:32N 44°40' E 037°54'0 0.0
2014-Aug-25 08:32N 44°40' E 037°54'0 0.0
2014-Aug-25 07:31N 44°40' E 037°54'0 0.0
2014-Aug-25 06:31N 44°39' E 037°54'0 0.0
2014-Aug-25 05:33N 44°39' E 037°54'0 0.1
2014-Aug-25 04:33N 44°39' E 037°54'0 0.1
2014-Aug-25 03:33N 44°39' E 037°54'0 0.0
2014-Aug-25 02:32N 44°39' E 037°54'0 0.1
2014-Aug-25 01:32N 44°39' E 037°54'0 0.1
2014-Aug-25 00:31N 44°39' E 037°54'0 0.0
2014-Aug-24 23:31N 44°40' E 037°54'0 0.0
2014-Aug-24 22:33N 44°39' E 037°54'0 0.0
2014-Aug-24 21:33N 44°39' E 037°54'0 0.1
2014-Aug-24 20:33N 44°39' E 037°54'0 0.0
2014-Aug-24 19:32N 44°39' E 037°54'0 0.1
2014-Aug-24 18:32N 44°39' E 037°54'0 0.1
2014-Aug-24 17:31N 44°39' E 037°54'0 0.0
2014-Aug-24 16:28N 44°39' E 037°54'0 0.0
2014-Aug-24 11:26N 44°40' E 037°54'0 0.0
2014-Aug-24 10:31N 44°40' E 037°54'0 0.0
2014-Aug-24 09:31N 44°40' E 037°54'0 0.0
2014-Aug-24 08:33N 44°40' E 037°54'0 0.0
2014-Aug-24 07:33N 44°39' E 037°54'0 0.0
2014-Aug-24 06:33N 44°39' E 037°54'0 0.1
2014-Aug-24 05:32N 44°39' E 037°54'0 0.0
2014-Aug-24 04:32N 44°39' E 037°54'0 0.0
2014-Aug-24 03:31N 44°39' E 037°54'0 0.0
2014-Aug-24 02:31N 44°39' E 037°54'0 0.0
2014-Aug-24 01:33N 44°39' E 037°54'0 0.1
2014-Aug-24 00:33N 44°39' E 037°54'0 0.0
2014-Aug-23 23:33N 44°39' E 037°54'0 0.0
2014-Aug-23 22:32N 44°39' E 037°54'0 0.0
2014-Aug-23 21:29N 44°39' E 037°54'0 0.0
2014-Aug-23 20:31N 44°39' E 037°54'0 0.0
2014-Aug-23 19:31N 44°39' E 037°54'  

Dump ship's entire track history